sensor_id;sensor_type;location;lat;lon;timestamp;P1;durP1;ratioP1;P2;durP2;ratioP2
35632;SDS011;21754;48.216;-1.628;2022-12-07T00:01:42;11.40;;;7.43;;
35632;SDS011;21754;48.216;-1.628;2022-12-07T00:04:10;19.00;;;8.63;;
35632;SDS011;21754;48.216;-1.628;2022-12-07T00:06:37;12.13;;;6.28;;
35632;SDS011;21754;48.216;-1.628;2022-12-07T00:09:04;10.52;;;6.25;;
35632;SDS011;21754;48.216;-1.628;2022-12-07T00:11:30;11.27;;;7.45;;
35632;SDS011;21754;48.216;-1.628;2022-12-07T00:13:57;16.35;;;7.20;;
35632;SDS011;21754;48.216;-1.628;2022-12-07T00:16:25;10.50;;;6.93;;
35632;SDS011;21754;48.216;-1.628;2022-12-07T00:18:52;12.75;;;7.32;;
35632;SDS011;21754;48.216;-1.628;2022-12-07T00:21:19;11.18;;;6.57;;
35632;SDS011;21754;48.216;-1.628;2022-12-07T00:23:49;14.82;;;7.30;;
35632;SDS011;21754;48.216;-1.628;2022-12-07T00:26:17;14.32;;;7.55;;
35632;SDS011;21754;48.216;-1.628;2022-12-07T00:28:51;11.07;;;6.03;;
35632;SDS011;21754;48.216;-1.628;2022-12-07T00:31:18;8.68;;;4.85;;
35632;SDS011;21754;48.216;-1.628;2022-12-07T00:33:44;10.27;;;6.38;;
35632;SDS011;21754;48.216;-1.628;2022-12-07T00:36:12;14.15;;;7.22;;
35632;SDS011;21754;48.216;-1.628;2022-12-07T00:38:38;11.43;;;6.80;;
35632;SDS011;21754;48.216;-1.628;2022-12-07T00:41:05;8.00;;;6.15;;
35632;SDS011;21754;48.216;-1.628;2022-12-07T00:43:32;10.88;;;6.30;;
35632;SDS011;21754;48.216;-1.628;2022-12-07T00:45:58;11.20;;;7.28;;
35632;SDS011;21754;48.216;-1.628;2022-12-07T00:48:24;10.45;;;5.78;;
35632;SDS011;21754;48.216;-1.628;2022-12-07T00:50:50;10.45;;;6.38;;
35632;SDS011;21754;48.216;-1.628;2022-12-07T00:53:16;9.85;;;6.20;;
35632;SDS011;21754;48.216;-1.628;2022-12-07T00:55:43;10.10;;;6.60;;
35632;SDS011;21754;48.216;-1.628;2022-12-07T00:58:09;10.52;;;5.47;;
35632;SDS011;21754;48.216;-1.628;2022-12-07T01:00:36;11.80;;;7.03;;
35632;SDS011;21754;48.216;-1.628;2022-12-07T01:03:03;13.02;;;4.40;;
35632;SDS011;21754;48.216;-1.628;2022-12-07T01:05:29;8.75;;;4.78;;
35632;SDS011;21754;48.216;-1.628;2022-12-07T01:07:55;11.95;;;5.07;;
35632;SDS011;21754;48.216;-1.628;2022-12-07T01:10:21;38.08;;;5.95;;
35632;SDS011;21754;48.216;-1.628;2022-12-07T01:12:47;10.40;;;6.68;;
35632;SDS011;21754;48.216;-1.628;2022-12-07T01:15:13;9.30;;;6.18;;
35632;SDS011;21754;48.216;-1.628;2022-12-07T01:17:39;9.50;;;6.32;;
35632;SDS011;21754;48.216;-1.628;2022-12-07T01:20:05;11.30;;;7.53;;
35632;SDS011;21754;48.216;-1.628;2022-12-07T01:22:36;11.27;;;7.28;;
35632;SDS011;21754;48.216;-1.628;2022-12-07T01:25:02;20.85;;;7.10;;
35632;SDS011;21754;48.216;-1.628;2022-12-07T01:27:28;10.35;;;6.70;;
35632;SDS011;21754;48.216;-1.628;2022-12-07T01:29:54;10.13;;;6.13;;
35632;SDS011;21754;48.216;-1.628;2022-12-07T01:32:20;11.70;;;6.13;;
35632;SDS011;21754;48.216;-1.628;2022-12-07T01:34:47;10.10;;;6.63;;
35632;SDS011;21754;48.216;-1.628;2022-12-07T01:37:13;12.73;;;6.70;;
35632;SDS011;21754;48.216;-1.628;2022-12-07T01:39:39;20.10;;;7.88;;
35632;SDS011;21754;48.216;-1.628;2022-12-07T01:42:09;12.18;;;7.35;;
35632;SDS011;21754;48.216;-1.628;2022-12-07T01:45:14;17.95;;;7.10;;
35632;SDS011;21754;48.216;-1.628;2022-12-07T01:47:21;14.70;;;7.55;;
35632;SDS011;21754;48.216;-1.628;2022-12-07T01:49:47;14.95;;;7.82;;
35632;SDS011;21754;48.216;-1.628;2022-12-07T01:54:40;13.18;;;7.70;;
35632;SDS011;21754;48.216;-1.628;2022-12-07T01:57:07;13.52;;;6.40;;
35632;SDS011;21754;48.216;-1.628;2022-12-07T01:59:34;12.55;;;7.15;;
35632;SDS011;21754;48.216;-1.628;2022-12-07T02:02:00;14.35;;;8.02;;
35632;SDS011;21754;48.216;-1.628;2022-12-07T02:04:27;14.57;;;6.97;;
35632;SDS011;21754;48.216;-1.628;2022-12-07T02:06:54;11.40;;;7.10;;
35632;SDS011;21754;48.216;-1.628;2022-12-07T02:09:21;7.18;;;5.32;;
35632;SDS011;21754;48.216;-1.628;2022-12-07T02:11:47;11.82;;;8.40;;
35632;SDS011;21754;48.216;-1.628;2022-12-07T02:14:13;14.07;;;6.97;;
35632;SDS011;21754;48.216;-1.628;2022-12-07T02:24:14;16.15;;;7.82;;
35632;SDS011;21754;48.216;-1.628;2022-12-07T02:29:26;10.55;;;6.20;;
35632;SDS011;21754;48.216;-1.628;2022-12-07T02:34:26;13.38;;;7.32;;
35632;SDS011;21754;48.216;-1.628;2022-12-07T02:36:55;13.93;;;7.07;;
35632;SDS011;21754;48.216;-1.628;2022-12-07T02:39:25;11.60;;;6.25;;
35632;SDS011;21754;48.216;-1.628;2022-12-07T02:41:53;11.35;;;6.85;;
35632;SDS011;21754;48.216;-1.628;2022-12-07T02:44:22;16.13;;;6.93;;
35632;SDS011;21754;48.216;-1.628;2022-12-07T02:47:22;12.43;;;7.63;;
35632;SDS011;21754;48.216;-1.628;2022-12-07T02:49:41;8.70;;;6.72;;
35632;SDS011;21754;48.216;-1.628;2022-12-07T02:52:07;14.38;;;6.35;;
35632;SDS011;21754;48.216;-1.628;2022-12-07T02:54:33;13.00;;;7.32;;
35632;SDS011;21754;48.216;-1.628;2022-12-07T03:02:16;12.82;;;5.80;;
35632;SDS011;21754;48.216;-1.628;2022-12-07T03:04:46;12.13;;;6.80;;
35632;SDS011;21754;48.216;-1.628;2022-12-07T03:07:21;16.08;;;7.68;;
35632;SDS011;21754;48.216;-1.628;2022-12-07T03:12:37;12.38;;;6.45;;
35632;SDS011;21754;48.216;-1.628;2022-12-07T03:15:10;12.07;;;7.05;;
35632;SDS011;21754;48.216;-1.628;2022-12-07T03:17:38;13.18;;;7.28;;
35632;SDS011;21754;48.216;-1.628;2022-12-07T03:20:05;7.70;;;5.40;;
35632;SDS011;21754;48.216;-1.628;2022-12-07T03:22:34;16.25;;;6.22;;
35632;SDS011;21754;48.216;-1.628;2022-12-07T03:25:03;9.52;;;5.72;;
35632;SDS011;21754;48.216;-1.628;2022-12-07T03:27:31;14.45;;;6.35;;
35632;SDS011;21754;48.216;-1.628;2022-12-07T03:30:05;10.57;;;6.07;;
35632;SDS011;21754;48.216;-1.628;2022-12-07T03:35:19;10.27;;;5.70;;
35632;SDS011;21754;48.216;-1.628;2022-12-07T03:37:53;15.48;;;7.25;;
35632;SDS011;21754;48.216;-1.628;2022-12-07T03:40:26;21.13;;;6.00;;
35632;SDS011;21754;48.216;-1.628;2022-12-07T03:42:54;14.82;;;5.28;;
35632;SDS011;21754;48.216;-1.628;2022-12-07T03:45:21;13.30;;;5.63;;
35632;SDS011;21754;48.216;-1.628;2022-12-07T03:53:16;12.10;;;7.05;;
35632;SDS011;21754;48.216;-1.628;2022-12-07T03:55:44;9.93;;;5.72;;
35632;SDS011;21754;48.216;-1.628;2022-12-07T03:58:12;7.28;;;4.70;;
35632;SDS011;21754;48.216;-1.628;2022-12-07T04:00:41;9.07;;;5.07;;
35632;SDS011;21754;48.216;-1.628;2022-12-07T04:03:07;8.55;;;5.20;;
35632;SDS011;21754;48.216;-1.628;2022-12-07T04:05:33;7.35;;;4.13;;
35632;SDS011;21754;48.216;-1.628;2022-12-07T04:08:00;7.40;;;4.28;;
35632;SDS011;21754;48.216;-1.628;2022-12-07T04:10:26;6.50;;;5.10;;
35632;SDS011;21754;48.216;-1.628;2022-12-07T04:12:52;5.65;;;4.85;;
35632;SDS011;21754;48.216;-1.628;2022-12-07T04:15:18;6.57;;;4.90;;
35632;SDS011;21754;48.216;-1.628;2022-12-07T04:17:44;8.07;;;5.00;;
35632;SDS011;21754;48.216;-1.628;2022-12-07T04:20:10;8.27;;;5.15;;
35632;SDS011;21754;48.216;-1.628;2022-12-07T04:22:36;9.98;;;5.45;;
35632;SDS011;21754;48.216;-1.628;2022-12-07T04:25:02;8.68;;;5.32;;
35632;SDS011;21754;48.216;-1.628;2022-12-07T04:27:28;7.22;;;4.43;;
35632;SDS011;21754;48.216;-1.628;2022-12-07T04:29:54;9.57;;;4.88;;
35632;SDS011;21754;48.216;-1.628;2022-12-07T04:32:21;5.40;;;3.78;;
35632;SDS011;21754;48.216;-1.628;2022-12-07T04:34:47;10.57;;;5.03;;
35632;SDS011;21754;48.216;-1.628;2022-12-07T04:37:13;9.40;;;5.38;;
35632;SDS011;21754;48.216;-1.628;2022-12-07T04:39:39;7.15;;;5.20;;
35632;SDS011;21754;48.216;-1.628;2022-12-07T04:42:05;9.70;;;5.47;;
35632;SDS011;21754;48.216;-1.628;2022-12-07T04:44:31;7.28;;;5.38;;
35632;SDS011;21754;48.216;-1.628;2022-12-07T04:46:57;9.25;;;4.95;;
35632;SDS011;21754;48.216;-1.628;2022-12-07T04:49:23;5.95;;;4.32;;
35632;SDS011;21754;48.216;-1.628;2022-12-07T04:51:50;7.47;;;5.93;;
35632;SDS011;21754;48.216;-1.628;2022-12-07T04:54:16;6.15;;;4.60;;
35632;SDS011;21754;48.216;-1.628;2022-12-07T04:56:42;15.80;;;5.18;;
35632;SDS011;21754;48.216;-1.628;2022-12-07T04:59:09;6.47;;;4.30;;
35632;SDS011;21754;48.216;-1.628;2022-12-07T05:01:35;4.70;;;3.78;;
35632;SDS011;21754;48.216;-1.628;2022-12-07T05:04:02;7.03;;;4.72;;
35632;SDS011;21754;48.216;-1.628;2022-12-07T05:06:28;9.85;;;5.53;;
35632;SDS011;21754;48.216;-1.628;2022-12-07T05:08:54;9.23;;;5.00;;
35632;SDS011;21754;48.216;-1.628;2022-12-07T05:11:20;8.07;;;4.75;;
35632;SDS011;21754;48.216;-1.628;2022-12-07T05:16:31;9.07;;;5.13;;
35632;SDS011;21754;48.216;-1.628;2022-12-07T05:18:57;9.38;;;4.78;;
35632;SDS011;21754;48.216;-1.628;2022-12-07T05:21:23;5.93;;;4.78;;
35632;SDS011;21754;48.216;-1.628;2022-12-07T05:23:50;7.50;;;4.88;;
35632;SDS011;21754;48.216;-1.628;2022-12-07T05:26:16;5.70;;;3.63;;
35632;SDS011;21754;48.216;-1.628;2022-12-07T05:28:42;5.97;;;3.40;;
35632;SDS011;21754;48.216;-1.628;2022-12-07T05:31:08;7.03;;;4.68;;
35632;SDS011;21754;48.216;-1.628;2022-12-07T05:33:34;7.07;;;4.18;;
35632;SDS011;21754;48.216;-1.628;2022-12-07T05:36:00;8.52;;;4.97;;
35632;SDS011;21754;48.216;-1.628;2022-12-07T05:38:32;9.00;;;5.85;;
35632;SDS011;21754;48.216;-1.628;2022-12-07T05:41:02;12.82;;;5.97;;
35632;SDS011;21754;48.216;-1.628;2022-12-07T05:43:28;7.10;;;4.93;;
35632;SDS011;21754;48.216;-1.628;2022-12-07T05:45:55;8.20;;;4.78;;
35632;SDS011;21754;48.216;-1.628;2022-12-07T05:48:21;8.07;;;4.47;;
35632;SDS011;21754;48.216;-1.628;2022-12-07T05:50:48;8.77;;;4.55;;
35632;SDS011;21754;48.216;-1.628;2022-12-07T05:53:14;7.63;;;4.93;;
35632;SDS011;21754;48.216;-1.628;2022-12-07T05:55:40;5.57;;;4.60;;
35632;SDS011;21754;48.216;-1.628;2022-12-07T05:58:06;4.78;;;3.90;;
35632;SDS011;21754;48.216;-1.628;2022-12-07T06:00:51;9.82;;;5.43;;
35632;SDS011;21754;48.216;-1.628;2022-12-07T06:03:17;8.45;;;5.50;;
35632;SDS011;21754;48.216;-1.628;2022-12-07T06:05:43;7.60;;;4.70;;
35632;SDS011;21754;48.216;-1.628;2022-12-07T06:08:09;10.27;;;4.85;;
35632;SDS011;21754;48.216;-1.628;2022-12-07T06:10:35;5.95;;;4.97;;
35632;SDS011;21754;48.216;-1.628;2022-12-07T06:13:01;5.85;;;4.85;;
35632;SDS011;21754;48.216;-1.628;2022-12-07T06:15:27;7.82;;;3.35;;
35632;SDS011;21754;48.216;-1.628;2022-12-07T06:17:53;10.57;;;5.38;;
35632;SDS011;21754;48.216;-1.628;2022-12-07T06:20:19;6.72;;;4.80;;
35632;SDS011;21754;48.216;-1.628;2022-12-07T06:22:45;7.45;;;4.80;;
35632;SDS011;21754;48.216;-1.628;2022-12-07T06:25:11;7.82;;;6.60;;
35632;SDS011;21754;48.216;-1.628;2022-12-07T06:27:37;6.72;;;5.40;;
35632;SDS011;21754;48.216;-1.628;2022-12-07T06:30:03;10.65;;;5.90;;
35632;SDS011;21754;48.216;-1.628;2022-12-07T06:32:32;9.85;;;4.55;;
35632;SDS011;21754;48.216;-1.628;2022-12-07T06:34:58;6.38;;;4.63;;
35632;SDS011;21754;48.216;-1.628;2022-12-07T06:37:24;8.70;;;4.95;;
35632;SDS011;21754;48.216;-1.628;2022-12-07T06:39:50;6.47;;;4.43;;
35632;SDS011;21754;48.216;-1.628;2022-12-07T06:42:16;9.20;;;4.72;;
35632;SDS011;21754;48.216;-1.628;2022-12-07T06:44:42;7.82;;;5.18;;
35632;SDS011;21754;48.216;-1.628;2022-12-07T06:47:08;6.32;;;4.55;;
35632;SDS011;21754;48.216;-1.628;2022-12-07T06:49:34;14.77;;;4.35;;
35632;SDS011;21754;48.216;-1.628;2022-12-07T06:52:00;9.38;;;4.82;;
35632;SDS011;21754;48.216;-1.628;2022-12-07T06:54:26;6.15;;;4.05;;
35632;SDS011;21754;48.216;-1.628;2022-12-07T06:56:55;6.93;;;4.85;;
35632;SDS011;21754;48.216;-1.628;2022-12-07T06:59:21;10.13;;;5.05;;
35632;SDS011;21754;48.216;-1.628;2022-12-07T07:01:47;7.15;;;5.20;;
35632;SDS011;21754;48.216;-1.628;2022-12-07T07:04:13;6.60;;;4.30;;
35632;SDS011;21754;48.216;-1.628;2022-12-07T07:06:39;13.32;;;5.90;;
35632;SDS011;21754;48.216;-1.628;2022-12-07T07:09:05;8.88;;;4.93;;
35632;SDS011;21754;48.216;-1.628;2022-12-07T07:11:31;7.60;;;4.80;;
35632;SDS011;21754;48.216;-1.628;2022-12-07T07:13:57;10.13;;;4.85;;
35632;SDS011;21754;48.216;-1.628;2022-12-07T07:16:27;9.43;;;4.43;;
35632;SDS011;21754;48.216;-1.628;2022-12-07T07:18:53;5.70;;;4.50;;
35632;SDS011;21754;48.216;-1.628;2022-12-07T07:21:19;12.40;;;5.03;;
35632;SDS011;21754;48.216;-1.628;2022-12-07T07:23:45;5.93;;;4.55;;
35632;SDS011;21754;48.216;-1.628;2022-12-07T07:26:11;7.40;;;4.88;;
35632;SDS011;21754;48.216;-1.628;2022-12-07T07:28:37;9.48;;;5.45;;
35632;SDS011;21754;48.216;-1.628;2022-12-07T07:31:04;10.52;;;6.57;;
35632;SDS011;21754;48.216;-1.628;2022-12-07T07:33:30;6.30;;;5.20;;
35632;SDS011;21754;48.216;-1.628;2022-12-07T07:35:56;12.82;;;6.32;;
35632;SDS011;21754;48.216;-1.628;2022-12-07T07:38:22;10.82;;;5.68;;
35632;SDS011;21754;48.216;-1.628;2022-12-07T07:40:48;11.68;;;8.10;;
35632;SDS011;21754;48.216;-1.628;2022-12-07T07:43:14;7.57;;;4.72;;
35632;SDS011;21754;48.216;-1.628;2022-12-07T07:45:40;9.60;;;4.75;;
35632;SDS011;21754;48.216;-1.628;2022-12-07T07:48:06;8.40;;;5.22;;
35632;SDS011;21754;48.216;-1.628;2022-12-07T07:50:32;8.10;;;5.57;;
35632;SDS011;21754;48.216;-1.628;2022-12-07T07:52:58;9.63;;;5.05;;
35632;SDS011;21754;48.216;-1.628;2022-12-07T07:55:24;10.68;;;5.90;;
35632;SDS011;21754;48.216;-1.628;2022-12-07T07:57:50;10.68;;;6.22;;
35632;SDS011;21754;48.216;-1.628;2022-12-07T08:00:16;9.50;;;6.03;;
35632;SDS011;21754;48.216;-1.628;2022-12-07T08:02:42;6.88;;;4.75;;
35632;SDS011;21754;48.216;-1.628;2022-12-07T08:05:08;9.60;;;6.30;;
35632;SDS011;21754;48.216;-1.628;2022-12-07T08:07:34;7.95;;;4.95;;
35632;SDS011;21754;48.216;-1.628;2022-12-07T08:10:00;11.57;;;5.88;;
35632;SDS011;21754;48.216;-1.628;2022-12-07T08:12:26;7.32;;;5.22;;
35632;SDS011;21754;48.216;-1.628;2022-12-07T08:14:52;9.18;;;6.10;;
35632;SDS011;21754;48.216;-1.628;2022-12-07T08:17:18;8.75;;;6.65;;
35632;SDS011;21754;48.216;-1.628;2022-12-07T08:19:44;10.75;;;6.13;;
35632;SDS011;21754;48.216;-1.628;2022-12-07T08:22:10;9.15;;;5.57;;
35632;SDS011;21754;48.216;-1.628;2022-12-07T08:24:36;9.75;;;6.55;;
35632;SDS011;21754;48.216;-1.628;2022-12-07T08:27:03;10.68;;;6.53;;
35632;SDS011;21754;48.216;-1.628;2022-12-07T08:29:29;8.00;;;5.22;;
35632;SDS011;21754;48.216;-1.628;2022-12-07T08:31:55;8.82;;;5.25;;
35632;SDS011;21754;48.216;-1.628;2022-12-07T08:34:21;7.13;;;5.32;;
35632;SDS011;21754;48.216;-1.628;2022-12-07T08:36:47;15.90;;;7.05;;
35632;SDS011;21754;48.216;-1.628;2022-12-07T08:39:13;9.63;;;5.75;;
35632;SDS011;21754;48.216;-1.628;2022-12-07T08:41:39;12.10;;;5.72;;
35632;SDS011;21754;48.216;-1.628;2022-12-07T08:44:05;8.82;;;6.00;;
35632;SDS011;21754;48.216;-1.628;2022-12-07T08:46:35;10.90;;;5.97;;
35632;SDS011;21754;48.216;-1.628;2022-12-07T08:49:12;6.15;;;5.38;;
35632;SDS011;21754;48.216;-1.628;2022-12-07T08:51:39;10.38;;;5.80;;
35632;SDS011;21754;48.216;-1.628;2022-12-07T08:54:08;9.55;;;6.30;;
35632;SDS011;21754;48.216;-1.628;2022-12-07T08:56:34;10.40;;;6.55;;
35632;SDS011;21754;48.216;-1.628;2022-12-07T08:59:01;12.02;;;6.53;;
35632;SDS011;21754;48.216;-1.628;2022-12-07T09:01:27;11.43;;;6.13;;
35632;SDS011;21754;48.216;-1.628;2022-12-07T09:03:53;10.00;;;7.07;;
35632;SDS011;21754;48.216;-1.628;2022-12-07T09:06:20;10.63;;;5.10;;
35632;SDS011;21754;48.216;-1.628;2022-12-07T09:08:46;12.73;;;6.60;;
35632;SDS011;21754;48.216;-1.628;2022-12-07T09:11:13;9.82;;;6.68;;
35632;SDS011;21754;48.216;-1.628;2022-12-07T09:13:39;10.80;;;6.30;;
35632;SDS011;21754;48.216;-1.628;2022-12-07T09:16:05;9.00;;;5.97;;
35632;SDS011;21754;48.216;-1.628;2022-12-07T09:18:31;9.95;;;5.22;;
35632;SDS011;21754;48.216;-1.628;2022-12-07T09:20:57;11.52;;;5.53;;
35632;SDS011;21754;48.216;-1.628;2022-12-07T09:23:23;7.50;;;5.63;;
35632;SDS011;21754;48.216;-1.628;2022-12-07T09:25:49;9.43;;;6.50;;
35632;SDS011;21754;48.216;-1.628;2022-12-07T09:28:15;8.90;;;5.50;;
35632;SDS011;21754;48.216;-1.628;2022-12-07T09:30:48;11.60;;;6.22;;
35632;SDS011;21754;48.216;-1.628;2022-12-07T09:33:14;20.08;;;8.30;;
35632;SDS011;21754;48.216;-1.628;2022-12-07T09:35:46;11.27;;;6.65;;
35632;SDS011;21754;48.216;-1.628;2022-12-07T09:38:13;15.88;;;8.70;;
35632;SDS011;21754;48.216;-1.628;2022-12-07T09:40:39;8.98;;;6.40;;
35632;SDS011;21754;48.216;-1.628;2022-12-07T09:43:11;11.40;;;7.60;;
35632;SDS011;21754;48.216;-1.628;2022-12-07T09:45:37;8.75;;;6.97;;
35632;SDS011;21754;48.216;-1.628;2022-12-07T09:48:04;10.00;;;6.38;;
35632;SDS011;21754;48.216;-1.628;2022-12-07T09:50:30;13.00;;;7.18;;
35632;SDS011;21754;48.216;-1.628;2022-12-07T09:53:41;16.90;;;6.72;;
35632;SDS011;21754;48.216;-1.628;2022-12-07T09:55:42;10.30;;;6.45;;
35632;SDS011;21754;48.216;-1.628;2022-12-07T09:58:22;9.40;;;6.57;;
35632;SDS011;21754;48.216;-1.628;2022-12-07T10:00:50;10.55;;;6.78;;
35632;SDS011;21754;48.216;-1.628;2022-12-07T10:03:18;12.18;;;7.20;;
35632;SDS011;21754;48.216;-1.628;2022-12-07T10:05:46;12.15;;;6.35;;
35632;SDS011;21754;48.216;-1.628;2022-12-07T10:08:13;14.32;;;8.73;;
35632;SDS011;21754;48.216;-1.628;2022-12-07T10:10:42;9.60;;;6.47;;
35632;SDS011;21754;48.216;-1.628;2022-12-07T10:13:12;11.25;;;6.93;;
35632;SDS011;21754;48.216;-1.628;2022-12-07T10:15:43;11.75;;;7.40;;
35632;SDS011;21754;48.216;-1.628;2022-12-07T10:18:30;15.13;;;6.97;;
35632;SDS011;21754;48.216;-1.628;2022-12-07T10:21:10;12.20;;;7.17;;
35632;SDS011;21754;48.216;-1.628;2022-12-07T10:23:38;8.40;;;6.70;;
35632;SDS011;21754;48.216;-1.628;2022-12-07T10:28:49;8.93;;;5.38;;
35632;SDS011;21754;48.216;-1.628;2022-12-07T10:31:16;9.65;;;5.75;;
35632;SDS011;21754;48.216;-1.628;2022-12-07T10:33:57;14.98;;;5.43;;
35632;SDS011;21754;48.216;-1.628;2022-12-07T10:38:50;8.57;;;5.70;;
35632;SDS011;21754;48.216;-1.628;2022-12-07T10:43:54;7.10;;;4.20;;
35632;SDS011;21754;48.216;-1.628;2022-12-07T10:58:50;9.82;;;6.35;;
35632;SDS011;21754;48.216;-1.628;2022-12-07T11:01:21;8.20;;;5.25;;
35632;SDS011;21754;48.216;-1.628;2022-12-07T11:20:41;8.05;;;5.82;;
35632;SDS011;21754;48.216;-1.628;2022-12-07T11:29:38;10.02;;;7.57;;
35632;SDS011;21754;48.216;-1.628;2022-12-07T11:32:21;8.35;;;5.68;;
35632;SDS011;21754;48.216;-1.628;2022-12-07T11:34:54;15.77;;;5.63;;
35632;SDS011;21754;48.216;-1.628;2022-12-07T11:37:34;11.02;;;6.63;;
35632;SDS011;21754;48.216;-1.628;2022-12-07T11:40:24;8.10;;;6.72;;
35632;SDS011;21754;48.216;-1.628;2022-12-07T11:42:59;10.20;;;6.45;;
35632;SDS011;21754;48.216;-1.628;2022-12-07T11:45:27;13.35;;;7.85;;
35632;SDS011;21754;48.216;-1.628;2022-12-07T11:48:03;10.88;;;6.65;;
35632;SDS011;21754;48.216;-1.628;2022-12-07T11:53:20;22.27;;;11.00;;
35632;SDS011;21754;48.216;-1.628;2022-12-07T12:03:49;19.88;;;10.32;;
35632;SDS011;21754;48.216;-1.628;2022-12-07T12:06:21;14.35;;;9.10;;
35632;SDS011;21754;48.216;-1.628;2022-12-07T12:08:55;14.77;;;8.73;;
35632;SDS011;21754;48.216;-1.628;2022-12-07T12:22:43;12.95;;;8.13;;
35632;SDS011;21754;48.216;-1.628;2022-12-07T12:25:21;14.15;;;8.98;;
35632;SDS011;21754;48.216;-1.628;2022-12-07T12:27:55;14.68;;;7.97;;
35632;SDS011;21754;48.216;-1.628;2022-12-07T12:30:38;12.77;;;7.93;;
35632;SDS011;21754;48.216;-1.628;2022-12-07T12:44:03;14.85;;;10.02;;
35632;SDS011;21754;48.216;-1.628;2022-12-07T12:47:04;13.82;;;7.32;;
35632;SDS011;21754;48.216;-1.628;2022-12-07T12:57:36;21.05;;;9.10;;
35632;SDS011;21754;48.216;-1.628;2022-12-07T13:02:53;14.20;;;8.75;;
35632;SDS011;21754;48.216;-1.628;2022-12-07T13:05:21;13.68;;;8.43;;
35632;SDS011;21754;48.216;-1.628;2022-12-07T13:07:51;9.65;;;7.13;;
35632;SDS011;21754;48.216;-1.628;2022-12-07T13:23:24;21.35;;;10.30;;
35632;SDS011;21754;48.216;-1.628;2022-12-07T13:25:53;15.13;;;8.50;;
35632;SDS011;21754;48.216;-1.628;2022-12-07T13:28:21;23.58;;;9.43;;
35632;SDS011;21754;48.216;-1.628;2022-12-07T13:33:39;16.98;;;9.02;;
35632;SDS011;21754;48.216;-1.628;2022-12-07T13:36:08;16.42;;;8.88;;
35632;SDS011;21754;48.216;-1.628;2022-12-07T13:38:37;14.75;;;8.10;;
35632;SDS011;21754;48.216;-1.628;2022-12-07T13:41:16;21.70;;;9.32;;
35632;SDS011;21754;48.216;-1.628;2022-12-07T13:43:48;17.17;;;8.93;;
35632;SDS011;21754;48.216;-1.628;2022-12-07T13:46:14;16.67;;;9.77;;
35632;SDS011;21754;48.216;-1.628;2022-12-07T13:51:12;16.05;;;9.90;;
35632;SDS011;21754;48.216;-1.628;2022-12-07T13:53:58;26.23;;;9.95;;
35632;SDS011;21754;48.216;-1.628;2022-12-07T13:56:27;15.38;;;9.73;;
35632;SDS011;21754;48.216;-1.628;2022-12-07T13:58:57;14.43;;;8.52;;
35632;SDS011;21754;48.216;-1.628;2022-12-07T14:01:24;12.55;;;9.20;;
35632;SDS011;21754;48.216;-1.628;2022-12-07T14:03:50;19.65;;;9.77;;
35632;SDS011;21754;48.216;-1.628;2022-12-07T14:08:44;20.20;;;10.93;;
35632;SDS011;21754;48.216;-1.628;2022-12-07T14:11:19;14.75;;;8.52;;
35632;SDS011;21754;48.216;-1.628;2022-12-07T14:18:47;16.17;;;10.05;;
35632;SDS011;21754;48.216;-1.628;2022-12-07T14:23:40;18.63;;;10.65;;
35632;SDS011;21754;48.216;-1.628;2022-12-07T14:26:13;19.00;;;10.35;;
35632;SDS011;21754;48.216;-1.628;2022-12-07T14:28:41;17.65;;;10.98;;
35632;SDS011;21754;48.216;-1.628;2022-12-07T14:31:10;17.73;;;9.37;;
35632;SDS011;21754;48.216;-1.628;2022-12-07T14:33:36;19.42;;;8.48;;
35632;SDS011;21754;48.216;-1.628;2022-12-07T14:36:03;14.82;;;9.10;;
35632;SDS011;21754;48.216;-1.628;2022-12-07T14:38:29;15.02;;;9.23;;
35632;SDS011;21754;48.216;-1.628;2022-12-07T14:40:55;21.05;;;7.68;;
35632;SDS011;21754;48.216;-1.628;2022-12-07T14:43:41;14.65;;;9.07;;
35632;SDS011;21754;48.216;-1.628;2022-12-07T14:46:07;13.80;;;8.88;;
35632;SDS011;21754;48.216;-1.628;2022-12-07T14:48:34;16.03;;;7.83;;
35632;SDS011;21754;48.216;-1.628;2022-12-07T14:51:00;21.73;;;9.25;;
35632;SDS011;21754;48.216;-1.628;2022-12-07T14:53:31;11.68;;;8.80;;
35632;SDS011;21754;48.216;-1.628;2022-12-07T14:55:59;14.27;;;8.30;;
35632;SDS011;21754;48.216;-1.628;2022-12-07T14:58:26;24.17;;;8.15;;
35632;SDS011;21754;48.216;-1.628;2022-12-07T15:00:52;11.82;;;8.13;;
35632;SDS011;21754;48.216;-1.628;2022-12-07T15:03:18;18.52;;;8.50;;
35632;SDS011;21754;48.216;-1.628;2022-12-07T15:05:44;14.50;;;8.32;;
35632;SDS011;21754;48.216;-1.628;2022-12-07T15:08:13;14.93;;;9.20;;
35632;SDS011;21754;48.216;-1.628;2022-12-07T15:10:39;13.52;;;8.38;;
35632;SDS011;21754;48.216;-1.628;2022-12-07T15:13:05;15.82;;;9.02;;
35632;SDS011;21754;48.216;-1.628;2022-12-07T15:15:51;14.65;;;9.00;;
35632;SDS011;21754;48.216;-1.628;2022-12-07T15:18:18;21.90;;;9.38;;
35632;SDS011;21754;48.216;-1.628;2022-12-07T15:20:44;15.52;;;8.48;;
35632;SDS011;21754;48.216;-1.628;2022-12-07T15:23:11;17.05;;;8.55;;
35632;SDS011;21754;48.216;-1.628;2022-12-07T15:25:44;13.68;;;8.57;;
35632;SDS011;21754;48.216;-1.628;2022-12-07T15:28:10;15.65;;;9.18;;
35632;SDS011;21754;48.216;-1.628;2022-12-07T15:30:37;13.27;;;8.25;;
35632;SDS011;21754;48.216;-1.628;2022-12-07T15:33:03;17.27;;;8.15;;
35632;SDS011;21754;48.216;-1.628;2022-12-07T15:35:29;21.08;;;9.30;;
35632;SDS011;21754;48.216;-1.628;2022-12-07T15:37:55;17.58;;;10.07;;
35632;SDS011;21754;48.216;-1.628;2022-12-07T15:40:21;21.38;;;10.45;;
35632;SDS011;21754;48.216;-1.628;2022-12-07T15:42:47;15.90;;;9.43;;
35632;SDS011;21754;48.216;-1.628;2022-12-07T15:45:13;15.60;;;8.77;;
35632;SDS011;21754;48.216;-1.628;2022-12-07T15:47:43;19.85;;;10.38;;
35632;SDS011;21754;48.216;-1.628;2022-12-07T15:50:12;23.13;;;12.75;;
35632;SDS011;21754;48.216;-1.628;2022-12-07T15:55:04;30.15;;;13.05;;
35632;SDS011;21754;48.216;-1.628;2022-12-07T15:57:31;32.90;;;15.98;;
35632;SDS011;21754;48.216;-1.628;2022-12-07T15:59:57;33.25;;;15.60;;
35632;SDS011;21754;48.216;-1.628;2022-12-07T16:02:23;22.83;;;14.02;;
35632;SDS011;21754;48.216;-1.628;2022-12-07T16:04:50;23.02;;;12.43;;
35632;SDS011;21754;48.216;-1.628;2022-12-07T16:07:17;23.88;;;13.38;;
35632;SDS011;21754;48.216;-1.628;2022-12-07T16:09:43;27.67;;;13.75;;
35632;SDS011;21754;48.216;-1.628;2022-12-07T16:12:10;33.38;;;16.33;;
35632;SDS011;21754;48.216;-1.628;2022-12-07T16:14:36;24.20;;;13.52;;
35632;SDS011;21754;48.216;-1.628;2022-12-07T16:17:03;29.60;;;16.08;;
35632;SDS011;21754;48.216;-1.628;2022-12-07T16:19:29;42.53;;;18.63;;
35632;SDS011;21754;48.216;-1.628;2022-12-07T16:21:56;48.47;;;21.85;;
35632;SDS011;21754;48.216;-1.628;2022-12-07T16:24:22;66.95;;;33.83;;
35632;SDS011;21754;48.216;-1.628;2022-12-07T16:26:48;61.72;;;33.28;;
35632;SDS011;21754;48.216;-1.628;2022-12-07T16:29:14;88.13;;;40.15;;
35632;SDS011;21754;48.216;-1.628;2022-12-07T16:31:40;85.38;;;35.33;;
35632;SDS011;21754;48.216;-1.628;2022-12-07T16:34:07;44.30;;;21.55;;
35632;SDS011;21754;48.216;-1.628;2022-12-07T16:36:33;42.45;;;19.52;;
35632;SDS011;21754;48.216;-1.628;2022-12-07T16:38:59;41.50;;;18.65;;
35632;SDS011;21754;48.216;-1.628;2022-12-07T16:41:26;48.38;;;20.83;;
35632;SDS011;21754;48.216;-1.628;2022-12-07T16:43:52;55.65;;;24.30;;
35632;SDS011;21754;48.216;-1.628;2022-12-07T16:46:18;51.13;;;23.98;;
35632;SDS011;21754;48.216;-1.628;2022-12-07T16:48:44;44.75;;;21.75;;
35632;SDS011;21754;48.216;-1.628;2022-12-07T16:51:11;34.72;;;18.48;;
35632;SDS011;21754;48.216;-1.628;2022-12-07T16:53:39;28.70;;;16.80;;
35632;SDS011;21754;48.216;-1.628;2022-12-07T16:56:12;34.90;;;16.23;;
35632;SDS011;21754;48.216;-1.628;2022-12-07T16:58:40;32.35;;;16.13;;
35632;SDS011;21754;48.216;-1.628;2022-12-07T17:01:17;43.42;;;20.52;;
35632;SDS011;21754;48.216;-1.628;2022-12-07T17:03:44;48.15;;;21.20;;